createdAt,value
2023-06-17T00:00:45.645Z,19.31
2023-06-17T00:03:12.390Z,19.06
2023-06-17T00:05:39.522Z,19.16
2023-06-17T00:08:06.044Z,18.81
2023-06-17T00:10:32.685Z,18.80
2023-06-17T00:12:59.696Z,18.87
2023-06-17T00:15:26.507Z,19.02
2023-06-17T00:17:53.342Z,18.96
2023-06-17T00:20:20.274Z,18.87
2023-06-17T00:22:48.148Z,18.64
2023-06-17T00:25:14.749Z,18.65
2023-06-17T00:27:41.639Z,18.81
2023-06-17T00:30:08.889Z,19.06
2023-06-17T00:32:35.910Z,19.19
2023-06-17T00:35:06.936Z,19.09
2023-06-17T00:37:33.630Z,18.90
2023-06-17T00:40:00.467Z,18.99
2023-06-17T00:42:26.995Z,19.05
2023-06-17T00:44:53.730Z,19.04
2023-06-17T00:47:20.776Z,19.18
2023-06-17T00:49:48.284Z,19.17
2023-06-17T00:52:31.061Z,18.89
2023-06-17T00:55:02.537Z,18.78
2023-06-17T00:57:30.386Z,18.81
2023-06-17T00:59:56.956Z,18.83
2023-06-17T01:02:26.818Z,18.73
2023-06-17T01:04:55.336Z,18.72
2023-06-17T01:07:41.344Z,18.62
2023-06-17T01:10:18.203Z,18.58
2023-06-17T01:12:47.687Z,18.75
2023-06-17T01:15:17.559Z,18.79
2023-06-17T01:17:47.311Z,18.66
2023-06-17T01:20:14.962Z,18.66
2023-06-17T01:22:42.673Z,18.58
2023-06-17T01:25:10.679Z,18.47
2023-06-17T01:27:37.218Z,18.49
2023-06-17T01:30:04.154Z,18.37
2023-06-17T01:32:30.802Z,18.46
2023-06-17T01:35:00.508Z,18.34
2023-06-17T01:37:33.061Z,18.28
2023-06-17T01:40:01.974Z,18.23
2023-06-17T01:42:32.763Z,18.23
2023-06-17T01:45:06.272Z,18.13
2023-06-17T01:47:33.332Z,18.15
2023-06-17T01:50:01.709Z,18.10
2023-06-17T01:52:28.490Z,18.08
2023-06-17T01:54:55.426Z,18.12
2023-06-17T01:57:22.088Z,18.15
2023-06-17T01:59:48.781Z,18.08
2023-06-17T02:02:15.920Z,18.11
2023-06-17T02:04:42.732Z,18.07
2023-06-17T02:07:11.371Z,17.99
2023-06-17T02:09:38.691Z,17.82
2023-06-17T02:12:06.491Z,17.79
2023-06-17T02:14:34.359Z,17.84
2023-06-17T02:17:01.566Z,17.89
2023-06-17T02:19:30.196Z,17.94
2023-06-17T02:21:56.873Z,17.93
2023-06-17T02:24:23.731Z,17.91
2023-06-17T02:26:50.891Z,17.91
2023-06-17T02:29:18.158Z,17.91
2023-06-17T02:31:44.864Z,17.92
2023-06-17T02:34:11.501Z,17.87
2023-06-17T02:36:41.068Z,17.92
2023-06-17T02:39:08.027Z,17.74
2023-06-17T02:41:34.948Z,17.68
2023-06-17T02:44:01.504Z,17.67
2023-06-17T02:46:28.539Z,17.58
2023-06-17T02:48:56.126Z,17.58
2023-06-17T02:51:23.326Z,17.57
2023-06-17T02:53:51.226Z,17.60
2023-06-17T02:56:18.317Z,17.46
2023-06-17T02:58:46.781Z,17.46
2023-06-17T03:01:14.120Z,17.38
2023-06-17T03:03:42.950Z,17.42
2023-06-17T03:06:10.451Z,17.47
2023-06-17T03:08:41.374Z,17.47
2023-06-17T03:11:08.491Z,17.45
2023-06-17T03:13:35.021Z,17.44
2023-06-17T03:16:02.451Z,17.45
2023-06-17T03:18:29.547Z,17.42
2023-06-17T03:20:56.248Z,17.36
2023-06-17T03:23:23.032Z,17.39
2023-06-17T03:25:51.207Z,17.40
2023-06-17T03:28:18.985Z,17.41
2023-06-17T03:30:46.201Z,17.39
2023-06-17T03:33:14.630Z,17.39
2023-06-17T03:35:41.793Z,17.23
2023-06-17T03:38:10.292Z,17.23
2023-06-17T03:40:37.660Z,17.19
2023-06-17T03:43:04.130Z,17.09
2023-06-17T03:45:31.874Z,17.08
2023-06-17T03:47:59.483Z,17.15
2023-06-17T03:50:26.200Z,17.16
2023-06-17T03:52:52.836Z,17.16
2023-06-17T03:55:19.418Z,17.10
2023-06-17T03:57:46.243Z,17.10
2023-06-17T04:00:14.962Z,17.12
2023-06-17T04:02:46.153Z,16.99
2023-06-17T04:05:14.389Z,17.01
2023-06-17T04:07:41.276Z,16.96
2023-06-17T04:10:09.601Z,16.91
2023-06-17T04:12:39.935Z,16.89
2023-06-17T04:15:08.172Z,16.91
2023-06-17T04:17:37.314Z,16.98
2023-06-17T04:20:13.883Z,16.85
2023-06-17T04:22:41.913Z,16.86
2023-06-17T04:25:10.920Z,16.73
2023-06-17T04:27:37.980Z,16.62
2023-06-17T04:30:06.689Z,16.78
2023-06-17T04:32:36.426Z,16.82
2023-06-17T04:35:06.357Z,16.81
2023-06-17T04:37:33.954Z,16.86
2023-06-17T04:40:00.863Z,16.93
2023-06-17T04:42:27.842Z,16.96
2023-06-17T04:44:54.450Z,16.99
2023-06-17T04:47:21.192Z,17.02
2023-06-17T04:49:49.002Z,17.09
2023-06-17T04:52:15.561Z,17.20
2023-06-17T04:54:42.953Z,17.17
2023-06-17T04:57:09.758Z,17.20
2023-06-17T04:59:36.286Z,17.19
2023-06-17T05:02:03.289Z,17.23
2023-06-17T05:04:30.172Z,17.30
2023-06-17T05:06:56.732Z,17.32
2023-06-17T05:09:23.845Z,17.58
2023-06-17T05:11:50.869Z,17.45
2023-06-17T05:14:17.479Z,17.44
2023-06-17T05:16:44.177Z,17.68
2023-06-17T05:19:10.750Z,17.77
2023-06-17T05:21:37.276Z,17.79
2023-06-17T05:24:04.112Z,17.81
2023-06-17T05:26:30.981Z,17.59
2023-06-17T05:28:58.207Z,17.67
2023-06-17T05:31:24.802Z,17.85
2023-06-17T05:33:51.472Z,17.86
2023-06-17T05:36:18.011Z,17.64
2023-06-17T05:38:44.494Z,17.54
2023-06-17T05:41:11.103Z,17.54
2023-06-17T05:43:37.701Z,17.71
2023-06-17T05:46:04.249Z,17.90
2023-06-17T05:48:30.820Z,18.00
2023-06-17T05:50:57.443Z,18.08
2023-06-17T05:53:23.968Z,18.43
2023-06-17T05:55:50.560Z,18.49
2023-06-17T05:58:17.080Z,18.55
2023-06-17T06:00:43.592Z,18.98
2023-06-17T06:03:10.157Z,19.47
2023-06-17T06:05:37.040Z,19.51
2023-06-17T06:08:03.655Z,19.39
2023-06-17T06:10:30.199Z,19.73
2023-06-17T06:12:56.871Z,20.00
2023-06-17T06:15:24.614Z,20.11
2023-06-17T06:17:51.199Z,20.18
2023-06-17T06:20:17.855Z,20.51
2023-06-17T06:22:44.627Z,20.43
2023-06-17T06:25:11.392Z,20.38
2023-06-17T06:27:37.940Z,20.56
2023-06-17T06:30:04.770Z,20.75
2023-06-17T06:32:31.399Z,21.27
2023-06-17T06:34:58.026Z,21.75
2023-06-17T06:37:24.651Z,22.19
2023-06-17T06:39:51.245Z,22.55
2023-06-17T06:42:17.779Z,22.67
2023-06-17T06:44:44.264Z,22.83
2023-06-17T06:47:10.776Z,23.32
2023-06-17T06:49:37.276Z,23.29
2023-06-17T06:52:04.059Z,23.07
2023-06-17T06:54:30.672Z,23.44
2023-06-17T06:56:57.843Z,22.90
2023-06-17T06:59:24.311Z,22.58
2023-06-17T07:01:50.940Z,23.37
2023-06-17T07:04:17.885Z,24.12
2023-06-17T07:06:44.474Z,24.70
2023-06-17T07:09:11.070Z,25.43
2023-06-17T07:11:37.566Z,25.23
2023-06-17T07:14:04.194Z,24.82
2023-06-17T07:16:30.932Z,25.20
2023-06-17T07:18:57.575Z,25.94
2023-06-17T07:21:24.117Z,26.79
2023-06-17T07:23:51.842Z,27.30
2023-06-17T07:26:18.385Z,27.20
2023-06-17T07:28:44.993Z,27.88
2023-06-17T07:31:11.972Z,27.88
2023-06-17T07:33:38.591Z,27.91
2023-06-17T07:36:05.190Z,28.22
2023-06-17T07:38:34.069Z,28.76
2023-06-17T07:41:01.277Z,29.47
2023-06-17T07:43:27.880Z,29.52
2023-06-17T07:45:54.456Z,29.51
2023-06-17T07:48:21.257Z,29.85
2023-06-17T07:50:47.825Z,30.17
2023-06-17T07:53:14.566Z,30.32
2023-06-17T07:55:41.063Z,30.86
2023-06-17T07:58:07.651Z,30.25
2023-06-17T08:00:34.177Z,30.77
2023-06-17T08:03:01.099Z,31.19
2023-06-17T08:05:27.663Z,31.07
2023-06-17T08:07:54.179Z,30.75
2023-06-17T08:10:21.126Z,31.89
2023-06-17T08:12:48.614Z,31.59
2023-06-17T08:15:15.263Z,31.45
2023-06-17T08:17:41.922Z,31.63
2023-06-17T08:20:11.237Z,31.65
2023-06-17T08:22:37.963Z,32.47
2023-06-17T08:25:04.678Z,32.71
2023-06-17T08:27:32.185Z,32.97
2023-06-17T08:29:59.948Z,33.06
2023-06-17T08:32:26.737Z,34.02
2023-06-17T08:34:53.317Z,33.10
2023-06-17T08:37:19.799Z,33.64
2023-06-17T08:39:46.316Z,34.11
2023-06-17T08:42:12.872Z,35.13
2023-06-17T08:44:45.626Z,35.83
2023-06-17T08:47:18.670Z,36.14
2023-06-17T08:49:45.642Z,34.76
2023-06-17T08:52:14.892Z,34.58
2023-06-17T08:54:41.945Z,34.63
2023-06-17T08:57:13.972Z,36.28
2023-06-17T08:59:43.569Z,37.18
2023-06-17T09:02:13.264Z,36.65
2023-06-17T09:04:41.025Z,35.07
2023-06-17T09:07:10.761Z,35.33
2023-06-17T09:09:38.207Z,35.06
2023-06-17T09:12:06.982Z,35.99
2023-06-17T09:14:34.384Z,37.21
2023-06-17T09:17:02.094Z,37.29
2023-06-17T09:19:31.428Z,37.24
2023-06-17T09:22:06.187Z,36.71
2023-06-17T09:24:33.184Z,37.12
2023-06-17T09:26:59.911Z,38.07
2023-06-17T09:29:30.435Z,38.48
2023-06-17T09:31:57.431Z,38.53
2023-06-17T09:34:25.806Z,37.86
2023-06-17T09:37:01.512Z,39.13
2023-06-17T09:39:32.229Z,36.47
2023-06-17T09:42:09.052Z,34.94
2023-06-17T09:44:38.123Z,34.81
2023-06-17T09:47:09.162Z,36.58
2023-06-17T09:49:37.915Z,36.89
2023-06-17T09:52:06.865Z,37.34
2023-06-17T09:54:37.015Z,37.76
2023-06-17T09:57:06.852Z,36.99
2023-06-17T09:59:33.512Z,38.82
2023-06-17T10:02:00.126Z,39.08
2023-06-17T10:04:26.839Z,39.41
2023-06-17T10:06:54.301Z,37.99
2023-06-17T10:09:21.278Z,38.01
2023-06-17T10:11:52.171Z,37.78
2023-06-17T10:14:24.932Z,39.27
2023-06-17T10:16:52.150Z,38.50
2023-06-17T10:19:23.862Z,38.48
2023-06-17T10:21:53.084Z,38.51
2023-06-17T10:24:20.877Z,38.42
2023-06-17T10:26:51.381Z,38.72
2023-06-17T10:29:18.500Z,38.66
2023-06-17T10:31:45.105Z,38.94
2023-06-17T10:34:16.879Z,38.53
2023-06-17T10:36:43.371Z,38.89
2023-06-17T10:39:13.751Z,38.26
2023-06-17T10:41:43.051Z,37.99
2023-06-17T10:44:21.611Z,36.39
2023-06-17T10:46:51.916Z,37.03
2023-06-17T10:49:19.999Z,37.83
2023-06-17T10:52:00.276Z,35.30
2023-06-17T10:54:34.243Z,36.57
2023-06-17T10:57:05.809Z,37.91
2023-06-17T10:59:33.304Z,38.75
2023-06-17T11:02:05.221Z,39.38
2023-06-17T11:04:33.264Z,39.54
2023-06-17T11:07:00.900Z,40.69
2023-06-17T11:09:28.655Z,40.03
2023-06-17T11:11:56.241Z,39.30
2023-06-17T11:14:23.524Z,38.34
2023-06-17T11:16:50.761Z,37.77
2023-06-17T11:19:17.357Z,38.90
2023-06-17T11:21:43.977Z,38.32
2023-06-17T11:24:12.270Z,38.53
2023-06-17T11:26:38.858Z,38.36
2023-06-17T11:29:06.230Z,37.61
2023-06-17T11:31:41.557Z,37.76
2023-06-17T11:34:09.666Z,37.19
2023-06-17T11:36:39.383Z,39.81
2023-06-17T11:39:05.982Z,39.76
2023-06-17T11:41:34.711Z,38.55
2023-06-17T11:44:02.040Z,37.88
2023-06-17T11:46:28.676Z,36.94
2023-06-17T11:48:56.397Z,37.42
2023-06-17T11:51:24.149Z,37.62
2023-06-17T11:53:51.428Z,38.59
2023-06-17T11:56:23.262Z,38.64
2023-06-17T11:58:53.084Z,39.03
2023-06-17T12:01:24.759Z,39.22
2023-06-17T12:03:51.682Z,39.19
2023-06-17T12:06:19.769Z,39.24
2023-06-17T12:08:55.841Z,40.04
2023-06-17T12:11:26.459Z,39.69
2023-06-17T12:13:53.497Z,39.00
2023-06-17T12:16:36.666Z,38.13
2023-06-17T12:19:06.271Z,37.79
2023-06-17T12:21:34.100Z,37.92
2023-06-17T12:24:00.910Z,37.68
2023-06-17T12:26:28.090Z,38.35
2023-06-17T12:28:55.544Z,39.20
2023-06-17T12:31:23.179Z,39.35
2023-06-17T12:33:50.206Z,39.90
2023-06-17T12:36:17.887Z,38.44
2023-06-17T12:38:45.744Z,37.08
2023-06-17T12:41:12.595Z,37.28
2023-06-17T12:43:40.573Z,36.27
2023-06-17T12:46:09.665Z,35.27
2023-06-17T12:48:36.367Z,35.55
2023-06-17T12:51:08.028Z,36.12
2023-06-17T12:53:35.638Z,37.72
2023-06-17T12:56:02.417Z,38.44
2023-06-17T12:58:29.224Z,38.43
2023-06-17T13:00:56.107Z,38.39
2023-06-17T13:03:22.912Z,38.07
2023-06-17T13:05:51.168Z,37.75
2023-06-17T13:08:18.480Z,36.24
2023-06-17T13:10:45.067Z,36.18
2023-06-17T13:13:11.831Z,36.79
2023-06-17T13:15:38.901Z,36.54
2023-06-17T13:18:05.707Z,36.29
2023-06-17T13:20:32.753Z,36.55
2023-06-17T13:23:00.800Z,37.26
2023-06-17T13:25:27.608Z,37.37
2023-06-17T13:27:55.126Z,37.66
2023-06-17T13:30:21.911Z,38.16
2023-06-17T13:32:48.894Z,38.48
2023-06-17T13:35:15.499Z,38.86
2023-06-17T13:37:42.035Z,38.85
2023-06-17T13:40:09.131Z,38.44
2023-06-17T13:42:35.651Z,38.58
2023-06-17T13:45:02.381Z,38.52
2023-06-17T13:47:29.149Z,37.63
2023-06-17T13:49:55.801Z,37.50
2023-06-17T13:52:22.291Z,37.64
2023-06-17T13:54:48.895Z,37.07
2023-06-17T13:57:16.126Z,36.61
2023-06-17T13:59:43.274Z,36.39
2023-06-17T14:02:10.030Z,36.23
2023-06-17T14:04:36.859Z,36.19
2023-06-17T14:07:03.502Z,36.01
2023-06-17T14:09:30.453Z,36.68
2023-06-17T14:11:57.414Z,36.61
2023-06-17T14:14:23.967Z,36.76
2023-06-17T14:16:50.680Z,36.77
2023-06-17T14:19:17.236Z,36.72
2023-06-17T14:21:56.087Z,36.79
2023-06-17T14:24:22.819Z,36.15
2023-06-17T14:26:52.970Z,35.89
2023-06-17T14:29:19.539Z,36.12
2023-06-17T14:31:46.097Z,35.30
2023-06-17T14:34:12.635Z,35.79
2023-06-17T14:36:39.174Z,35.15
2023-06-17T14:39:05.929Z,34.69
2023-06-17T14:41:33.773Z,34.33
2023-06-17T14:44:00.645Z,34.16
2023-06-17T14:46:27.221Z,33.32
2023-06-17T14:48:54.288Z,33.87
2023-06-17T14:51:20.839Z,33.49
2023-06-17T14:53:47.358Z,33.80
2023-06-17T14:56:33.551Z,33.59
2023-06-17T14:59:01.963Z,33.48
2023-06-17T15:01:33.293Z,33.67
2023-06-17T15:04:00.341Z,33.79
2023-06-17T15:06:26.925Z,33.71
2023-06-17T15:09:02.140Z,33.65
2023-06-17T15:11:28.642Z,33.59
2023-06-17T15:13:55.165Z,33.45
2023-06-17T15:16:22.632Z,33.51
2023-06-17T15:18:49.185Z,33.69
2023-06-17T15:21:15.918Z,33.49
2023-06-17T15:23:42.921Z,33.06
2023-06-17T15:26:10.383Z,32.89
2023-06-17T15:28:37.650Z,32.88
2023-06-17T15:31:04.226Z,33.01
2023-06-17T15:33:30.886Z,32.97
2023-06-17T15:35:57.640Z,32.76
2023-06-17T15:38:24.139Z,32.85
2023-06-17T15:40:50.958Z,32.34
2023-06-17T15:43:17.434Z,32.40
2023-06-17T15:45:43.922Z,32.45
2023-06-17T15:48:10.543Z,32.50
2023-06-17T15:50:37.483Z,32.37
2023-06-17T15:53:04.066Z,32.17
2023-06-17T15:55:30.720Z,32.14
2023-06-17T15:57:57.363Z,32.13
2023-06-17T16:00:24.180Z,32.10
2023-06-17T16:02:50.926Z,31.92
2023-06-17T16:05:17.509Z,31.95
2023-06-17T16:07:44.082Z,32.02
2023-06-17T16:10:11.139Z,31.78
2023-06-17T16:12:38.644Z,31.74
2023-06-17T16:15:08.906Z,31.53
2023-06-17T16:17:36.395Z,31.47
2023-06-17T16:20:03.020Z,31.38
2023-06-17T16:22:29.581Z,31.31
2023-06-17T16:24:56.188Z,31.19
2023-06-17T16:27:22.886Z,31.04
2023-06-17T16:29:49.384Z,31.03
2023-06-17T16:32:16.093Z,31.08
2023-06-17T16:34:43.393Z,30.97
2023-06-17T16:37:10.420Z,31.00
2023-06-17T16:39:37.103Z,30.90
2023-06-17T16:42:06.589Z,30.78
2023-06-17T16:44:33.918Z,30.70
2023-06-17T16:47:00.656Z,30.59
2023-06-17T16:49:27.184Z,30.64
2023-06-17T16:51:53.805Z,30.43
2023-06-17T16:54:20.341Z,30.36
2023-06-17T16:56:47.040Z,30.38
2023-06-17T16:59:13.734Z,30.32
2023-06-17T17:01:41.350Z,30.33
2023-06-17T17:04:13.377Z,30.30
2023-06-17T17:06:40.882Z,30.26
2023-06-17T17:09:07.961Z,30.11
2023-06-17T17:11:34.511Z,30.01
2023-06-17T17:14:01.725Z,29.86
2023-06-17T17:16:28.741Z,29.65
2023-06-17T17:18:55.477Z,29.63
2023-06-17T17:21:22.048Z,29.67
2023-06-17T17:23:48.617Z,29.69
2023-06-17T17:26:15.269Z,29.63
2023-06-17T17:28:42.941Z,29.67
2023-06-17T17:31:10.116Z,29.60
2023-06-17T17:33:37.063Z,29.48
2023-06-17T17:36:03.835Z,29.48
2023-06-17T17:38:31.317Z,29.46
2023-06-17T17:40:57.829Z,29.35
2023-06-17T17:43:24.314Z,29.40
2023-06-17T17:45:50.846Z,29.40
2023-06-17T17:48:17.450Z,29.34
2023-06-17T17:50:44.072Z,29.26
2023-06-17T17:53:10.704Z,29.17
2023-06-17T17:55:37.248Z,29.13
2023-06-17T17:58:04.261Z,29.13
2023-06-17T18:00:30.786Z,29.13
2023-06-17T18:02:57.525Z,29.10
2023-06-17T18:05:24.082Z,29.05
2023-06-17T18:07:50.930Z,28.91
2023-06-17T18:10:17.507Z,28.91
2023-06-17T18:12:43.996Z,28.84
2023-06-17T18:15:11.487Z,28.73
2023-06-17T18:17:38.420Z,28.61
2023-06-17T18:20:06.122Z,28.41
2023-06-17T18:22:32.668Z,28.38
2023-06-17T18:24:59.198Z,28.34
2023-06-17T18:27:35.094Z,28.26
2023-06-17T18:30:04.429Z,28.14
2023-06-17T18:32:31.268Z,28.08
2023-06-17T18:34:57.824Z,28.00
2023-06-17T18:37:24.309Z,27.91
2023-06-17T18:39:50.872Z,27.79
2023-06-17T18:42:17.385Z,27.73
2023-06-17T18:44:44.660Z,27.65
2023-06-17T18:47:11.451Z,27.50
2023-06-17T18:49:38.697Z,27.50
2023-06-17T18:52:05.710Z,27.42
2023-06-17T18:54:32.755Z,27.49
2023-06-17T18:56:59.365Z,27.52
2023-06-17T18:59:25.842Z,27.46
2023-06-17T19:01:52.479Z,27.46
2023-06-17T19:04:19.228Z,27.53
2023-06-17T19:06:45.829Z,27.50
2023-06-17T19:09:12.400Z,27.40
2023-06-17T19:11:38.945Z,27.34
2023-06-17T19:14:05.878Z,27.21
2023-06-17T19:16:32.482Z,27.24
2023-06-17T19:18:59.311Z,27.08
2023-06-17T19:21:25.845Z,27.03
2023-06-17T19:23:53.117Z,26.99
2023-06-17T19:26:19.779Z,26.84
2023-06-17T19:28:46.380Z,26.82
2023-06-17T19:31:12.923Z,26.76
2023-06-17T19:33:39.442Z,26.63
2023-06-17T19:36:06.515Z,26.59
2023-06-17T19:38:33.704Z,26.49
2023-06-17T19:41:00.387Z,26.14
2023-06-17T19:43:27.162Z,26.09
2023-06-17T19:45:55.506Z,26.06
2023-06-17T19:48:22.163Z,26.07
2023-06-17T19:50:48.704Z,25.96
2023-06-17T19:53:15.291Z,25.91
2023-06-17T19:55:42.290Z,25.86
2023-06-17T19:58:08.812Z,25.83
2023-06-17T20:00:37.520Z,25.76
2023-06-17T20:03:04.427Z,25.64
2023-06-17T20:05:31.176Z,25.45
2023-06-17T20:07:57.746Z,25.33
2023-06-17T20:10:24.527Z,25.09
2023-06-17T20:12:51.773Z,24.85
2023-06-17T20:15:18.334Z,24.52
2023-06-17T20:17:44.875Z,24.64
2023-06-17T20:20:14.076Z,24.76
2023-06-17T20:22:41.602Z,24.54
2023-06-17T20:25:08.524Z,24.49
2023-06-17T20:27:35.139Z,24.40
2023-06-17T20:30:01.628Z,24.23
2023-06-17T20:32:28.226Z,24.26
2023-06-17T20:34:54.816Z,24.33
2023-06-17T20:37:21.474Z,24.26
2023-06-17T20:39:48.002Z,24.08
2023-06-17T20:42:14.603Z,23.87
2023-06-17T20:44:41.196Z,23.99
2023-06-17T20:47:08.990Z,23.79
2023-06-17T20:49:36.362Z,23.80
2023-06-17T20:52:03.104Z,23.78
2023-06-17T20:54:29.629Z,23.60
2023-06-17T20:56:57.242Z,23.46
2023-06-17T20:59:25.489Z,23.37
2023-06-17T21:01:52.441Z,23.14
2023-06-17T21:04:19.181Z,23.07
2023-06-17T21:06:45.886Z,23.08
2023-06-17T21:09:13.796Z,23.10
2023-06-17T21:11:40.532Z,22.88
2023-06-17T21:14:07.140Z,22.82
2023-06-17T21:16:33.762Z,23.16
2023-06-17T21:19:00.398Z,23.12
2023-06-17T21:21:29.946Z,22.88
2023-06-17T21:23:56.547Z,22.78
2023-06-17T21:26:23.310Z,22.83
2023-06-17T21:28:49.917Z,22.79
2023-06-17T21:31:16.425Z,23.00
2023-06-17T21:33:43.027Z,22.62
2023-06-17T21:36:09.581Z,22.65
2023-06-17T21:38:36.073Z,22.63
2023-06-17T21:41:02.730Z,22.55
2023-06-17T21:43:33.243Z,22.36
2023-06-17T21:46:00.991Z,22.21
2023-06-17T21:48:28.190Z,22.06
2023-06-17T21:50:54.672Z,22.17
2023-06-17T21:53:21.313Z,22.18
2023-06-17T21:55:48.134Z,22.09
2023-06-17T21:58:14.706Z,22.18
2023-06-17T22:00:41.258Z,22.37
2023-06-17T22:03:07.894Z,22.26
2023-06-17T22:05:34.958Z,22.28
2023-06-17T22:08:01.451Z,22.24
2023-06-17T22:10:27.944Z,22.11
2023-06-17T22:12:55.602Z,22.06
2023-06-17T22:15:22.201Z,22.03
2023-06-17T22:17:48.756Z,22.16
2023-06-17T22:20:15.652Z,22.23
2023-06-17T22:22:42.642Z,22.17
2023-06-17T22:25:09.451Z,22.14
2023-06-17T22:27:36.030Z,22.07
2023-06-17T22:30:03.572Z,22.05
2023-06-17T22:32:30.092Z,21.93
2023-06-17T22:34:58.643Z,21.83
2023-06-17T22:37:25.622Z,21.88
2023-06-17T22:39:52.181Z,21.75
2023-06-17T22:42:18.738Z,21.88
2023-06-17T22:44:45.256Z,21.86
2023-06-17T22:47:11.831Z,21.83
2023-06-17T22:49:38.389Z,21.85
2023-06-17T22:52:05.473Z,21.89
2023-06-17T22:54:32.887Z,21.52
2023-06-17T22:56:59.437Z,21.77
2023-06-17T22:59:25.932Z,21.57
2023-06-17T23:01:52.928Z,21.48
2023-06-17T23:04:19.452Z,21.59
2023-06-17T23:06:46.265Z,21.51
2023-06-17T23:09:12.787Z,21.47
2023-06-17T23:11:39.314Z,21.34
2023-06-17T23:14:05.835Z,21.22
2023-06-17T23:16:32.761Z,21.36
2023-06-17T23:18:59.465Z,21.41
2023-06-17T23:21:27.071Z,21.36
2023-06-17T23:23:53.773Z,21.37
2023-06-17T23:26:20.313Z,21.33
2023-06-17T23:28:46.834Z,21.33
2023-06-17T23:31:15.027Z,21.28
2023-06-17T23:33:41.662Z,21.31
2023-06-17T23:36:08.805Z,21.20
2023-06-17T23:38:40.533Z,20.97
2023-06-17T23:41:07.238Z,20.96
2023-06-17T23:43:33.754Z,20.84
2023-06-17T23:46:01.156Z,20.94
2023-06-17T23:48:28.127Z,20.91
2023-06-17T23:50:54.709Z,20.77
2023-06-17T23:53:21.281Z,20.85
2023-06-17T23:55:48.317Z,20.79
2023-06-17T23:58:15.143Z,20.98
